sensor_id;sensor_type;location;lat;lon;timestamp;P1;durP1;ratioP1;P2;durP2;ratioP2
30892;SDS011;17595;50.884;4.346;2022-07-23T00:01:07;22.60;;;16.35;;
30892;SDS011;17595;50.884;4.346;2022-07-23T00:03:33;19.45;;;16.23;;
30892;SDS011;17595;50.884;4.346;2022-07-23T00:05:58;19.58;;;15.80;;
30892;SDS011;17595;50.884;4.346;2022-07-23T00:08:24;20.98;;;16.67;;
30892;SDS011;17595;50.884;4.346;2022-07-23T00:10:50;20.25;;;16.88;;
30892;SDS011;17595;50.884;4.346;2022-07-23T00:13:16;19.17;;;16.02;;
30892;SDS011;17595;50.884;4.346;2022-07-23T00:15:42;20.60;;;16.67;;
30892;SDS011;17595;50.884;4.346;2022-07-23T00:18:08;20.88;;;16.58;;
30892;SDS011;17595;50.884;4.346;2022-07-23T00:20:33;19.80;;;16.30;;
30892;SDS011;17595;50.884;4.346;2022-07-23T00:22:59;19.98;;;16.60;;
30892;SDS011;17595;50.884;4.346;2022-07-23T00:25:26;20.73;;;16.98;;
30892;SDS011;17595;50.884;4.346;2022-07-23T00:27:52;21.70;;;17.52;;
30892;SDS011;17595;50.884;4.346;2022-07-23T00:30:17;25.65;;;17.33;;
30892;SDS011;17595;50.884;4.346;2022-07-23T00:32:55;19.50;;;17.40;;
30892;SDS011;17595;50.884;4.346;2022-07-23T00:35:22;23.67;;;17.85;;
30892;SDS011;17595;50.884;4.346;2022-07-23T00:37:50;24.50;;;17.98;;
30892;SDS011;17595;50.884;4.346;2022-07-23T00:40:16;20.23;;;16.92;;
30892;SDS011;17595;50.884;4.346;2022-07-23T00:42:42;22.42;;;17.08;;
30892;SDS011;17595;50.884;4.346;2022-07-23T00:45:08;19.90;;;16.25;;
30892;SDS011;17595;50.884;4.346;2022-07-23T00:47:34;19.92;;;17.45;;
30892;SDS011;17595;50.884;4.346;2022-07-23T00:50:00;21.02;;;17.35;;
30892;SDS011;17595;50.884;4.346;2022-07-23T00:52:27;20.13;;;16.35;;
30892;SDS011;17595;50.884;4.346;2022-07-23T00:54:56;20.67;;;17.00;;
30892;SDS011;17595;50.884;4.346;2022-07-23T00:57:22;22.73;;;17.98;;
30892;SDS011;17595;50.884;4.346;2022-07-23T00:59:48;21.90;;;17.75;;
30892;SDS011;17595;50.884;4.346;2022-07-23T01:02:13;22.52;;;17.38;;
30892;SDS011;17595;50.884;4.346;2022-07-23T01:04:39;20.73;;;16.85;;
30892;SDS011;17595;50.884;4.346;2022-07-23T01:07:05;21.00;;;17.08;;
30892;SDS011;17595;50.884;4.346;2022-07-23T01:09:31;19.88;;;17.27;;
30892;SDS011;17595;50.884;4.346;2022-07-23T01:11:57;22.75;;;17.33;;
30892;SDS011;17595;50.884;4.346;2022-07-23T01:14:23;23.52;;;16.50;;
30892;SDS011;17595;50.884;4.346;2022-07-23T01:16:49;21.23;;;16.77;;
30892;SDS011;17595;50.884;4.346;2022-07-23T01:19:15;20.42;;;16.38;;
30892;SDS011;17595;50.884;4.346;2022-07-23T01:21:42;21.85;;;16.77;;
30892;SDS011;17595;50.884;4.346;2022-07-23T01:24:10;20.88;;;17.17;;
30892;SDS011;17595;50.884;4.346;2022-07-23T01:26:37;22.80;;;16.15;;
30892;SDS011;17595;50.884;4.346;2022-07-23T01:29:03;20.67;;;16.17;;
30892;SDS011;17595;50.884;4.346;2022-07-23T01:31:29;19.00;;;16.58;;
30892;SDS011;17595;50.884;4.346;2022-07-23T01:33:55;18.65;;;16.35;;
30892;SDS011;17595;50.884;4.346;2022-07-23T01:36:21;21.08;;;15.93;;
30892;SDS011;17595;50.884;4.346;2022-07-23T01:38:47;19.27;;;15.93;;
30892;SDS011;17595;50.884;4.346;2022-07-23T01:41:13;19.67;;;16.30;;
30892;SDS011;17595;50.884;4.346;2022-07-23T01:43:38;18.33;;;16.35;;
30892;SDS011;17595;50.884;4.346;2022-07-23T01:46:04;20.15;;;16.25;;
30892;SDS011;17595;50.884;4.346;2022-07-23T01:48:30;23.88;;;17.25;;
30892;SDS011;17595;50.884;4.346;2022-07-23T01:50:56;19.92;;;16.65;;
30892;SDS011;17595;50.884;4.346;2022-07-23T01:53:21;18.48;;;16.52;;
30892;SDS011;17595;50.884;4.346;2022-07-23T01:55:47;20.25;;;16.40;;
30892;SDS011;17595;50.884;4.346;2022-07-23T01:58:13;22.65;;;16.33;;
30892;SDS011;17595;50.884;4.346;2022-07-23T02:00:38;21.15;;;16.13;;
30892;SDS011;17595;50.884;4.346;2022-07-23T02:03:04;18.40;;;15.85;;
30892;SDS011;17595;50.884;4.346;2022-07-23T02:05:30;20.70;;;16.83;;
30892;SDS011;17595;50.884;4.346;2022-07-23T02:07:57;19.75;;;16.17;;
30892;SDS011;17595;50.884;4.346;2022-07-23T02:10:23;17.85;;;15.95;;
30892;SDS011;17595;50.884;4.346;2022-07-23T02:12:49;20.02;;;15.00;;
30892;SDS011;17595;50.884;4.346;2022-07-23T02:15:15;18.77;;;15.50;;
30892;SDS011;17595;50.884;4.346;2022-07-23T02:17:40;19.65;;;17.25;;
30892;SDS011;17595;50.884;4.346;2022-07-23T02:20:07;19.17;;;15.27;;
30892;SDS011;17595;50.884;4.346;2022-07-23T02:22:33;20.52;;;16.58;;
30892;SDS011;17595;50.884;4.346;2022-07-23T02:24:59;25.25;;;17.65;;
30892;SDS011;17595;50.884;4.346;2022-07-23T02:27:25;19.48;;;16.05;;
30892;SDS011;17595;50.884;4.346;2022-07-23T02:29:50;20.08;;;16.67;;
30892;SDS011;17595;50.884;4.346;2022-07-23T02:32:16;19.05;;;16.98;;
30892;SDS011;17595;50.884;4.346;2022-07-23T02:34:42;20.90;;;16.73;;
30892;SDS011;17595;50.884;4.346;2022-07-23T02:37:07;23.50;;;15.80;;
30892;SDS011;17595;50.884;4.346;2022-07-23T02:39:34;20.60;;;17.30;;
30892;SDS011;17595;50.884;4.346;2022-07-23T02:42:00;21.40;;;17.20;;
30892;SDS011;17595;50.884;4.346;2022-07-23T02:44:26;19.75;;;16.55;;
30892;SDS011;17595;50.884;4.346;2022-07-23T02:46:52;20.42;;;17.17;;
30892;SDS011;17595;50.884;4.346;2022-07-23T02:49:17;21.65;;;17.50;;
30892;SDS011;17595;50.884;4.346;2022-07-23T02:51:43;23.50;;;17.83;;
30892;SDS011;17595;50.884;4.346;2022-07-23T02:54:08;21.17;;;17.02;;
30892;SDS011;17595;50.884;4.346;2022-07-23T02:56:34;19.92;;;16.75;;
30892;SDS011;17595;50.884;4.346;2022-07-23T02:59:00;20.25;;;17.38;;
30892;SDS011;17595;50.884;4.346;2022-07-23T03:01:25;22.40;;;16.60;;
30892;SDS011;17595;50.884;4.346;2022-07-23T03:03:51;21.33;;;17.20;;
30892;SDS011;17595;50.884;4.346;2022-07-23T03:06:16;23.10;;;17.85;;
30892;SDS011;17595;50.884;4.346;2022-07-23T03:08:42;20.48;;;17.70;;
30892;SDS011;17595;50.884;4.346;2022-07-23T03:11:07;21.80;;;18.50;;
30892;SDS011;17595;50.884;4.346;2022-07-23T03:13:36;22.42;;;18.25;;
30892;SDS011;17595;50.884;4.346;2022-07-23T03:16:02;21.67;;;17.80;;
30892;SDS011;17595;50.884;4.346;2022-07-23T03:18:28;24.00;;;18.02;;
30892;SDS011;17595;50.884;4.346;2022-07-23T03:20:54;21.58;;;17.48;;
30892;SDS011;17595;50.884;4.346;2022-07-23T03:23:19;22.08;;;17.85;;
30892;SDS011;17595;50.884;4.346;2022-07-23T03:25:45;21.58;;;17.35;;
30892;SDS011;17595;50.884;4.346;2022-07-23T03:28:14;22.90;;;18.00;;
30892;SDS011;17595;50.884;4.346;2022-07-23T03:30:46;21.85;;;17.48;;
30892;SDS011;17595;50.884;4.346;2022-07-23T03:33:13;24.85;;;16.83;;
30892;SDS011;17595;50.884;4.346;2022-07-23T03:35:39;19.48;;;17.05;;
30892;SDS011;17595;50.884;4.346;2022-07-23T03:38:05;20.48;;;17.65;;
30892;SDS011;17595;50.884;4.346;2022-07-23T03:40:31;22.15;;;18.33;;
30892;SDS011;17595;50.884;4.346;2022-07-23T03:42:56;24.35;;;18.15;;
30892;SDS011;17595;50.884;4.346;2022-07-23T03:45:22;21.77;;;16.83;;
30892;SDS011;17595;50.884;4.346;2022-07-23T03:47:47;21.95;;;17.25;;
30892;SDS011;17595;50.884;4.346;2022-07-23T03:50:13;24.23;;;18.42;;
30892;SDS011;17595;50.884;4.346;2022-07-23T03:52:39;23.98;;;17.77;;
30892;SDS011;17595;50.884;4.346;2022-07-23T03:55:05;21.75;;;17.83;;
30892;SDS011;17595;50.884;4.346;2022-07-23T03:57:31;20.25;;;18.05;;
30892;SDS011;17595;50.884;4.346;2022-07-23T03:59:57;24.10;;;18.42;;
30892;SDS011;17595;50.884;4.346;2022-07-23T04:02:22;22.27;;;16.85;;
30892;SDS011;17595;50.884;4.346;2022-07-23T04:04:48;22.30;;;17.02;;
30892;SDS011;17595;50.884;4.346;2022-07-23T04:07:13;19.77;;;16.40;;
30892;SDS011;17595;50.884;4.346;2022-07-23T04:09:39;22.30;;;17.38;;
30892;SDS011;17595;50.884;4.346;2022-07-23T04:12:05;20.38;;;16.17;;
30892;SDS011;17595;50.884;4.346;2022-07-23T04:14:32;21.02;;;15.68;;
30892;SDS011;17595;50.884;4.346;2022-07-23T04:16:58;20.95;;;16.58;;
30892;SDS011;17595;50.884;4.346;2022-07-23T04:19:24;22.38;;;17.65;;
30892;SDS011;17595;50.884;4.346;2022-07-23T04:21:49;20.27;;;17.15;;
30892;SDS011;17595;50.884;4.346;2022-07-23T04:24:15;21.60;;;15.55;;
30892;SDS011;17595;50.884;4.346;2022-07-23T04:26:41;21.10;;;16.65;;
30892;SDS011;17595;50.884;4.346;2022-07-23T04:29:06;21.38;;;17.40;;
30892;SDS011;17595;50.884;4.346;2022-07-23T04:31:32;20.88;;;17.13;;
30892;SDS011;17595;50.884;4.346;2022-07-23T04:33:58;23.05;;;16.80;;
30892;SDS011;17595;50.884;4.346;2022-07-23T04:36:23;21.27;;;17.58;;
30892;SDS011;17595;50.884;4.346;2022-07-23T04:38:49;22.80;;;16.52;;
30892;SDS011;17595;50.884;4.346;2022-07-23T04:41:14;20.42;;;16.42;;
30892;SDS011;17595;50.884;4.346;2022-07-23T04:43:40;22.63;;;17.58;;
30892;SDS011;17595;50.884;4.346;2022-07-23T04:46:05;19.52;;;16.60;;
30892;SDS011;17595;50.884;4.346;2022-07-23T04:48:31;23.15;;;17.25;;
30892;SDS011;17595;50.884;4.346;2022-07-23T04:50:57;21.23;;;17.05;;
30892;SDS011;17595;50.884;4.346;2022-07-23T04:53:23;19.85;;;16.33;;
30892;SDS011;17595;50.884;4.346;2022-07-23T04:55:48;21.65;;;16.95;;
30892;SDS011;17595;50.884;4.346;2022-07-23T04:58:14;22.55;;;17.38;;
30892;SDS011;17595;50.884;4.346;2022-07-23T05:00:40;19.80;;;15.85;;
30892;SDS011;17595;50.884;4.346;2022-07-23T05:03:06;22.05;;;15.82;;
30892;SDS011;17595;50.884;4.346;2022-07-23T05:05:31;19.83;;;16.80;;
30892;SDS011;17595;50.884;4.346;2022-07-23T05:07:57;20.58;;;16.65;;
30892;SDS011;17595;50.884;4.346;2022-07-23T05:10:23;21.38;;;15.10;;
30892;SDS011;17595;50.884;4.346;2022-07-23T05:12:48;20.02;;;15.15;;
30892;SDS011;17595;50.884;4.346;2022-07-23T05:15:14;18.48;;;15.23;;
30892;SDS011;17595;50.884;4.346;2022-07-23T05:17:39;17.40;;;14.02;;
30892;SDS011;17595;50.884;4.346;2022-07-23T05:20:05;18.85;;;14.52;;
30892;SDS011;17595;50.884;4.346;2022-07-23T05:22:31;17.88;;;15.25;;
30892;SDS011;17595;50.884;4.346;2022-07-23T05:24:58;19.60;;;16.92;;
30892;SDS011;17595;50.884;4.346;2022-07-23T05:27:23;16.08;;;14.38;;
30892;SDS011;17595;50.884;4.346;2022-07-23T05:29:49;16.35;;;14.68;;
30892;SDS011;17595;50.884;4.346;2022-07-23T05:32:14;17.65;;;14.68;;
30892;SDS011;17595;50.884;4.346;2022-07-23T05:34:40;21.00;;;15.02;;
30892;SDS011;17595;50.884;4.346;2022-07-23T05:37:06;18.83;;;14.75;;
30892;SDS011;17595;50.884;4.346;2022-07-23T05:39:31;16.45;;;14.07;;
30892;SDS011;17595;50.884;4.346;2022-07-23T05:41:57;16.50;;;13.90;;
30892;SDS011;17595;50.884;4.346;2022-07-23T05:44:23;18.25;;;13.57;;
30892;SDS011;17595;50.884;4.346;2022-07-23T05:46:48;20.15;;;14.70;;
30892;SDS011;17595;50.884;4.346;2022-07-23T05:49:14;17.40;;;13.55;;
30892;SDS011;17595;50.884;4.346;2022-07-23T05:51:39;16.17;;;13.15;;
30892;SDS011;17595;50.884;4.346;2022-07-23T05:54:05;17.65;;;13.77;;
30892;SDS011;17595;50.884;4.346;2022-07-23T05:56:30;21.85;;;15.00;;
30892;SDS011;17595;50.884;4.346;2022-07-23T05:58:56;17.85;;;13.45;;
30892;SDS011;17595;50.884;4.346;2022-07-23T06:01:22;16.08;;;13.68;;
30892;SDS011;17595;50.884;4.346;2022-07-23T06:03:47;17.92;;;14.73;;
30892;SDS011;17595;50.884;4.346;2022-07-23T06:06:13;19.02;;;14.40;;
30892;SDS011;17595;50.884;4.346;2022-07-23T06:08:38;17.70;;;13.88;;
30892;SDS011;17595;50.884;4.346;2022-07-23T06:11:04;15.82;;;14.15;;
30892;SDS011;17595;50.884;4.346;2022-07-23T06:13:30;17.00;;;14.60;;
30892;SDS011;17595;50.884;4.346;2022-07-23T06:15:55;16.15;;;14.45;;
30892;SDS011;17595;50.884;4.346;2022-07-23T06:18:21;18.80;;;14.65;;
30892;SDS011;17595;50.884;4.346;2022-07-23T06:20:47;19.60;;;15.43;;
30892;SDS011;17595;50.884;4.346;2022-07-23T06:23:12;18.40;;;15.77;;
30892;SDS011;17595;50.884;4.346;2022-07-23T06:25:38;21.02;;;15.07;;
30892;SDS011;17595;50.884;4.346;2022-07-23T06:28:04;22.95;;;15.40;;
30892;SDS011;17595;50.884;4.346;2022-07-23T06:30:30;21.05;;;16.33;;
30892;SDS011;17595;50.884;4.346;2022-07-23T06:32:55;17.35;;;14.63;;
30892;SDS011;17595;50.884;4.346;2022-07-23T06:35:21;19.08;;;14.98;;
30892;SDS011;17595;50.884;4.346;2022-07-23T06:37:47;16.38;;;14.23;;
30892;SDS011;17595;50.884;4.346;2022-07-23T06:40:12;19.45;;;13.57;;
30892;SDS011;17595;50.884;4.346;2022-07-23T06:42:38;19.27;;;14.38;;
30892;SDS011;17595;50.884;4.346;2022-07-23T06:45:07;18.23;;;14.85;;
30892;SDS011;17595;50.884;4.346;2022-07-23T06:47:33;18.13;;;14.23;;
30892;SDS011;17595;50.884;4.346;2022-07-23T06:49:58;19.30;;;14.25;;
30892;SDS011;17595;50.884;4.346;2022-07-23T06:52:24;17.50;;;14.60;;
30892;SDS011;17595;50.884;4.346;2022-07-23T06:54:51;17.60;;;14.43;;
30892;SDS011;17595;50.884;4.346;2022-07-23T06:57:17;17.45;;;14.27;;
30892;SDS011;17595;50.884;4.346;2022-07-23T06:59:43;18.17;;;12.90;;
30892;SDS011;17595;50.884;4.346;2022-07-23T07:02:08;15.60;;;12.38;;
30892;SDS011;17595;50.884;4.346;2022-07-23T07:04:34;15.85;;;13.00;;
30892;SDS011;17595;50.884;4.346;2022-07-23T07:07:00;13.43;;;11.85;;
30892;SDS011;17595;50.884;4.346;2022-07-23T07:09:26;16.40;;;13.73;;
30892;SDS011;17595;50.884;4.346;2022-07-23T07:11:51;15.68;;;12.02;;
30892;SDS011;17595;50.884;4.346;2022-07-23T07:14:17;12.93;;;11.57;;
30892;SDS011;17595;50.884;4.346;2022-07-23T07:16:43;14.27;;;11.60;;
30892;SDS011;17595;50.884;4.346;2022-07-23T07:19:08;15.07;;;12.02;;
30892;SDS011;17595;50.884;4.346;2022-07-23T07:21:34;14.60;;;11.35;;
30892;SDS011;17595;50.884;4.346;2022-07-23T07:24:00;12.40;;;11.10;;
30892;SDS011;17595;50.884;4.346;2022-07-23T07:26:27;16.60;;;12.13;;
30892;SDS011;17595;50.884;4.346;2022-07-23T07:28:52;15.00;;;11.90;;
30892;SDS011;17595;50.884;4.346;2022-07-23T07:31:18;14.40;;;11.32;;
30892;SDS011;17595;50.884;4.346;2022-07-23T07:33:43;14.13;;;11.02;;
30892;SDS011;17595;50.884;4.346;2022-07-23T07:36:09;15.65;;;10.75;;
30892;SDS011;17595;50.884;4.346;2022-07-23T07:38:35;13.32;;;11.05;;
30892;SDS011;17595;50.884;4.346;2022-07-23T07:41:00;15.55;;;11.55;;
30892;SDS011;17595;50.884;4.346;2022-07-23T07:43:26;13.88;;;10.90;;
30892;SDS011;17595;50.884;4.346;2022-07-23T07:45:51;15.57;;;12.38;;
30892;SDS011;17595;50.884;4.346;2022-07-23T07:48:17;12.63;;;10.60;;
30892;SDS011;17595;50.884;4.346;2022-07-23T07:50:43;15.63;;;10.35;;
30892;SDS011;17595;50.884;4.346;2022-07-23T07:53:08;15.20;;;11.05;;
30892;SDS011;17595;50.884;4.346;2022-07-23T07:55:34;12.90;;;11.60;;
30892;SDS011;17595;50.884;4.346;2022-07-23T07:58:00;13.25;;;10.27;;
30892;SDS011;17595;50.884;4.346;2022-07-23T08:00:26;14.60;;;9.73;;
30892;SDS011;17595;50.884;4.346;2022-07-23T08:02:52;13.68;;;10.20;;
30892;SDS011;17595;50.884;4.346;2022-07-23T08:05:22;15.15;;;10.90;;
30892;SDS011;17595;50.884;4.346;2022-07-23T08:07:50;15.18;;;10.85;;
30892;SDS011;17595;50.884;4.346;2022-07-23T08:10:15;15.05;;;10.98;;
30892;SDS011;17595;50.884;4.346;2022-07-23T08:15:10;15.50;;;11.23;;
30892;SDS011;17595;50.884;4.346;2022-07-23T08:17:37;16.70;;;11.60;;
30892;SDS011;17595;50.884;4.346;2022-07-23T08:20:06;18.02;;;12.20;;
30892;SDS011;17595;50.884;4.346;2022-07-23T08:22:41;12.65;;;10.32;;
30892;SDS011;17595;50.884;4.346;2022-07-23T08:25:06;12.98;;;10.55;;
30892;SDS011;17595;50.884;4.346;2022-07-23T08:27:32;15.85;;;11.02;;
30892;SDS011;17595;50.884;4.346;2022-07-23T08:29:58;15.25;;;9.93;;
30892;SDS011;17595;50.884;4.346;2022-07-23T08:32:23;17.05;;;10.55;;
30892;SDS011;17595;50.884;4.346;2022-07-23T08:34:49;15.98;;;9.80;;
30892;SDS011;17595;50.884;4.346;2022-07-23T08:37:14;12.77;;;9.35;;
30892;SDS011;17595;50.884;4.346;2022-07-23T08:39:40;17.05;;;9.32;;
30892;SDS011;17595;50.884;4.346;2022-07-23T08:42:06;13.63;;;9.50;;
30892;SDS011;17595;50.884;4.346;2022-07-23T08:44:32;12.93;;;8.85;;
30892;SDS011;17595;50.884;4.346;2022-07-23T08:47:00;14.02;;;8.13;;
30892;SDS011;17595;50.884;4.346;2022-07-23T08:49:27;11.98;;;8.07;;
30892;SDS011;17595;50.884;4.346;2022-07-23T08:51:53;11.77;;;8.63;;
30892;SDS011;17595;50.884;4.346;2022-07-23T08:54:20;9.80;;;8.45;;
30892;SDS011;17595;50.884;4.346;2022-07-23T08:56:47;11.00;;;8.23;;
30892;SDS011;17595;50.884;4.346;2022-07-23T08:59:13;16.23;;;8.63;;
30892;SDS011;17595;50.884;4.346;2022-07-23T09:01:39;11.10;;;7.80;;
30892;SDS011;17595;50.884;4.346;2022-07-23T09:04:04;14.65;;;8.45;;
30892;SDS011;17595;50.884;4.346;2022-07-23T09:06:30;11.85;;;8.00;;
30892;SDS011;17595;50.884;4.346;2022-07-23T09:08:56;13.27;;;8.10;;
30892;SDS011;17595;50.884;4.346;2022-07-23T09:11:22;10.55;;;7.30;;
30892;SDS011;17595;50.884;4.346;2022-07-23T09:13:48;8.38;;;6.25;;
30892;SDS011;17595;50.884;4.346;2022-07-23T09:23:48;9.10;;;6.22;;
30892;SDS011;17595;50.884;4.346;2022-07-23T09:28:52;9.52;;;7.25;;
30892;SDS011;17595;50.884;4.346;2022-07-23T09:31:46;13.88;;;8.18;;
30892;SDS011;17595;50.884;4.346;2022-07-23T09:36:55;12.57;;;8.15;;
30892;SDS011;17595;50.884;4.346;2022-07-23T09:39:34;8.38;;;7.25;;
30892;SDS011;17595;50.884;4.346;2022-07-23T09:42:20;9.48;;;7.32;;
30892;SDS011;17595;50.884;4.346;2022-07-23T09:47:16;8.90;;;6.25;;
30892;SDS011;17595;50.884;4.346;2022-07-23T09:52:27;16.30;;;7.05;;
30892;SDS011;17595;50.884;4.346;2022-07-23T09:55:14;7.88;;;6.75;;
30892;SDS011;17595;50.884;4.346;2022-07-23T09:57:41;11.85;;;6.15;;
30892;SDS011;17595;50.884;4.346;2022-07-23T10:00:10;8.77;;;4.93;;
30892;SDS011;17595;50.884;4.346;2022-07-23T10:02:36;8.90;;;6.07;;
30892;SDS011;17595;50.884;4.346;2022-07-23T10:05:03;6.80;;;4.15;;
30892;SDS011;17595;50.884;4.346;2022-07-23T10:07:34;7.78;;;4.00;;
30892;SDS011;17595;50.884;4.346;2022-07-23T10:10:02;5.88;;;3.63;;
30892;SDS011;17595;50.884;4.346;2022-07-23T10:12:29;7.85;;;4.05;;
30892;SDS011;17595;50.884;4.346;2022-07-23T10:14:58;6.65;;;4.90;;
30892;SDS011;17595;50.884;4.346;2022-07-23T10:17:25;8.73;;;6.22;;
30892;SDS011;17595;50.884;4.346;2022-07-23T10:19:52;7.35;;;5.75;;
30892;SDS011;17595;50.884;4.346;2022-07-23T10:22:19;6.72;;;4.72;;
30892;SDS011;17595;50.884;4.346;2022-07-23T10:30:08;8.07;;;5.28;;
30892;SDS011;17595;50.884;4.346;2022-07-23T10:38:11;8.38;;;4.38;;
30892;SDS011;17595;50.884;4.346;2022-07-23T10:40:53;9.32;;;5.20;;
30892;SDS011;17595;50.884;4.346;2022-07-23T10:43:24;5.30;;;4.72;;
30892;SDS011;17595;50.884;4.346;2022-07-23T10:45:50;5.72;;;5.10;;
30892;SDS011;17595;50.884;4.346;2022-07-23T10:48:20;7.63;;;4.80;;
30892;SDS011;17595;50.884;4.346;2022-07-23T10:56:17;8.85;;;6.25;;
30892;SDS011;17595;50.884;4.346;2022-07-23T11:01:41;7.35;;;4.78;;
30892;SDS011;17595;50.884;4.346;2022-07-23T11:04:07;7.60;;;4.45;;
30892;SDS011;17595;50.884;4.346;2022-07-23T11:09:25;6.22;;;4.85;;
30892;SDS011;17595;50.884;4.346;2022-07-23T11:14:57;6.50;;;5.05;;
30892;SDS011;17595;50.884;4.346;2022-07-23T11:17:26;7.97;;;5.63;;
30892;SDS011;17595;50.884;4.346;2022-07-23T11:22:45;8.23;;;6.13;;
30892;SDS011;17595;50.884;4.346;2022-07-23T11:25:14;7.68;;;5.13;;
30892;SDS011;17595;50.884;4.346;2022-07-23T11:28:17;8.10;;;6.80;;
30892;SDS011;17595;50.884;4.346;2022-07-23T11:30:46;9.23;;;6.07;;
30892;SDS011;17595;50.884;4.346;2022-07-23T11:35:42;8.07;;;4.65;;
30892;SDS011;17595;50.884;4.346;2022-07-23T11:38:13;7.32;;;4.95;;
30892;SDS011;17595;50.884;4.346;2022-07-23T11:40:46;8.90;;;5.75;;
30892;SDS011;17595;50.884;4.346;2022-07-23T11:43:13;10.10;;;6.03;;
30892;SDS011;17595;50.884;4.346;2022-07-23T11:45:41;6.78;;;5.13;;
30892;SDS011;17595;50.884;4.346;2022-07-23T11:48:21;6.28;;;4.70;;
30892;SDS011;17595;50.884;4.346;2022-07-23T11:50:49;8.82;;;5.82;;
30892;SDS011;17595;50.884;4.346;2022-07-23T11:53:22;7.35;;;4.65;;
30892;SDS011;17595;50.884;4.346;2022-07-23T11:55:53;6.32;;;5.45;;
30892;SDS011;17595;50.884;4.346;2022-07-23T11:58:20;12.65;;;7.40;;
30892;SDS011;17595;50.884;4.346;2022-07-23T12:00:46;6.43;;;4.55;;
30892;SDS011;17595;50.884;4.346;2022-07-23T12:03:12;6.93;;;4.35;;
30892;SDS011;17595;50.884;4.346;2022-07-23T12:05:38;6.15;;;4.38;;
30892;SDS011;17595;50.884;4.346;2022-07-23T12:08:05;7.30;;;4.35;;
30892;SDS011;17595;50.884;4.346;2022-07-23T12:10:37;11.43;;;9.17;;
30892;SDS011;17595;50.884;4.346;2022-07-23T12:13:12;6.68;;;4.78;;
30892;SDS011;17595;50.884;4.346;2022-07-23T12:15:47;7.10;;;4.88;;
30892;SDS011;17595;50.884;4.346;2022-07-23T12:18:15;8.68;;;5.53;;
30892;SDS011;17595;50.884;4.346;2022-07-23T12:23:11;6.65;;;5.32;;
30892;SDS011;17595;50.884;4.346;2022-07-23T12:25:39;7.93;;;5.85;;
30892;SDS011;17595;50.884;4.346;2022-07-23T12:28:11;7.22;;;6.43;;
30892;SDS011;17595;50.884;4.346;2022-07-23T12:33:03;6.72;;;5.75;;
30892;SDS011;17595;50.884;4.346;2022-07-23T12:35:34;9.27;;;5.50;;
30892;SDS011;17595;50.884;4.346;2022-07-23T12:38:06;8.30;;;5.97;;
30892;SDS011;17595;50.884;4.346;2022-07-23T12:40:35;10.05;;;5.90;;
30892;SDS011;17595;50.884;4.346;2022-07-23T12:43:11;6.75;;;6.05;;
30892;SDS011;17595;50.884;4.346;2022-07-23T12:45:49;8.43;;;5.70;;
30892;SDS011;17595;50.884;4.346;2022-07-23T12:48:17;6.10;;;4.72;;
30892;SDS011;17595;50.884;4.346;2022-07-23T12:50:44;7.38;;;4.50;;
30892;SDS011;17595;50.884;4.346;2022-07-23T12:53:15;8.55;;;6.05;;
30892;SDS011;17595;50.884;4.346;2022-07-23T12:55:43;5.53;;;4.90;;
30892;SDS011;17595;50.884;4.346;2022-07-23T12:58:11;6.80;;;4.88;;
30892;SDS011;17595;50.884;4.346;2022-07-23T13:00:56;5.28;;;4.55;;
30892;SDS011;17595;50.884;4.346;2022-07-23T13:03:30;7.85;;;5.70;;
30892;SDS011;17595;50.884;4.346;2022-07-23T13:06:04;11.90;;;4.75;;
30892;SDS011;17595;50.884;4.346;2022-07-23T13:08:35;8.23;;;4.35;;
30892;SDS011;17595;50.884;4.346;2022-07-23T13:11:02;5.80;;;4.88;;
30892;SDS011;17595;50.884;4.346;2022-07-23T13:13:30;6.47;;;4.80;;
30892;SDS011;17595;50.884;4.346;2022-07-23T13:15:57;9.00;;;4.13;;
30892;SDS011;17595;50.884;4.346;2022-07-23T13:18:23;8.25;;;3.53;;
30892;SDS011;17595;50.884;4.346;2022-07-23T13:20:50;7.13;;;4.85;;
30892;SDS011;17595;50.884;4.346;2022-07-23T13:23:16;6.97;;;4.75;;
30892;SDS011;17595;50.884;4.346;2022-07-23T13:25:42;7.97;;;4.15;;
30892;SDS011;17595;50.884;4.346;2022-07-23T13:28:08;6.75;;;4.55;;
30892;SDS011;17595;50.884;4.346;2022-07-23T13:30:33;5.15;;;3.47;;
30892;SDS011;17595;50.884;4.346;2022-07-23T13:33:00;5.53;;;4.68;;
30892;SDS011;17595;50.884;4.346;2022-07-23T13:35:27;5.17;;;4.67;;
30892;SDS011;17595;50.884;4.346;2022-07-23T13:37:53;7.43;;;4.10;;
30892;SDS011;17595;50.884;4.346;2022-07-23T13:40:19;7.68;;;4.32;;
30892;SDS011;17595;50.884;4.346;2022-07-23T13:42:44;7.40;;;4.32;;
30892;SDS011;17595;50.884;4.346;2022-07-23T13:45:10;4.53;;;3.88;;
30892;SDS011;17595;50.884;4.346;2022-07-23T13:47:36;4.13;;;3.72;;
30892;SDS011;17595;50.884;4.346;2022-07-23T13:50:02;7.13;;;4.03;;
30892;SDS011;17595;50.884;4.346;2022-07-23T13:52:28;7.75;;;4.18;;
30892;SDS011;17595;50.884;4.346;2022-07-23T13:54:54;9.10;;;6.20;;
30892;SDS011;17595;50.884;4.346;2022-07-23T13:57:19;6.15;;;4.93;;
30892;SDS011;17595;50.884;4.346;2022-07-23T13:59:45;7.15;;;4.20;;
30892;SDS011;17595;50.884;4.346;2022-07-23T14:02:10;10.90;;;4.00;;
30892;SDS011;17595;50.884;4.346;2022-07-23T14:04:40;4.50;;;3.47;;
30892;SDS011;17595;50.884;4.346;2022-07-23T14:07:06;6.13;;;4.13;;
30892;SDS011;17595;50.884;4.346;2022-07-23T14:09:31;5.07;;;4.20;;
30892;SDS011;17595;50.884;4.346;2022-07-23T14:11:59;6.03;;;3.40;;
30892;SDS011;17595;50.884;4.346;2022-07-23T14:14:24;4.28;;;3.45;;
30892;SDS011;17595;50.884;4.346;2022-07-23T14:16:50;6.68;;;4.00;;
30892;SDS011;17595;50.884;4.346;2022-07-23T14:19:16;4.88;;;3.65;;
30892;SDS011;17595;50.884;4.346;2022-07-23T14:21:42;8.00;;;3.30;;
30892;SDS011;17595;50.884;4.346;2022-07-23T14:24:08;6.30;;;3.60;;
30892;SDS011;17595;50.884;4.346;2022-07-23T14:26:33;6.53;;;3.70;;
30892;SDS011;17595;50.884;4.346;2022-07-23T14:28:59;4.85;;;3.67;;
30892;SDS011;17595;50.884;4.346;2022-07-23T14:31:25;5.97;;;4.05;;
30892;SDS011;17595;50.884;4.346;2022-07-23T14:33:51;7.15;;;4.32;;
30892;SDS011;17595;50.884;4.346;2022-07-23T14:36:17;6.35;;;3.92;;
30892;SDS011;17595;50.884;4.346;2022-07-23T14:38:42;4.28;;;3.60;;
30892;SDS011;17595;50.884;4.346;2022-07-23T14:41:08;5.32;;;3.83;;
30892;SDS011;17595;50.884;4.346;2022-07-23T14:43:34;11.52;;;4.63;;
30892;SDS011;17595;50.884;4.346;2022-07-23T14:46:00;4.72;;;3.47;;
30892;SDS011;17595;50.884;4.346;2022-07-23T14:48:26;4.38;;;3.97;;
30892;SDS011;17595;50.884;4.346;2022-07-23T14:50:52;6.35;;;4.65;;
30892;SDS011;17595;50.884;4.346;2022-07-23T14:53:17;4.88;;;4.13;;
30892;SDS011;17595;50.884;4.346;2022-07-23T14:55:43;7.35;;;3.83;;
30892;SDS011;17595;50.884;4.346;2022-07-23T14:58:09;4.75;;;3.88;;
30892;SDS011;17595;50.884;4.346;2022-07-23T15:00:34;6.18;;;3.97;;
30892;SDS011;17595;50.884;4.346;2022-07-23T15:03:00;6.40;;;3.75;;
30892;SDS011;17595;50.884;4.346;2022-07-23T15:05:25;5.38;;;4.32;;
30892;SDS011;17595;50.884;4.346;2022-07-23T15:07:52;5.03;;;3.90;;
30892;SDS011;17595;50.884;4.346;2022-07-23T15:10:18;7.03;;;3.60;;
30892;SDS011;17595;50.884;4.346;2022-07-23T15:12:43;4.78;;;3.72;;
30892;SDS011;17595;50.884;4.346;2022-07-23T15:15:11;6.85;;;4.20;;
30892;SDS011;17595;50.884;4.346;2022-07-23T15:17:38;9.63;;;4.40;;
30892;SDS011;17595;50.884;4.346;2022-07-23T15:20:04;5.35;;;4.05;;
30892;SDS011;17595;50.884;4.346;2022-07-23T15:22:30;5.95;;;3.95;;
30892;SDS011;17595;50.884;4.346;2022-07-23T15:24:56;4.88;;;4.13;;